Pagrindinis puslapis
METAR-TAF:

METAR-TAF

Oro uostai :

Pajala, Švedija

platuma: 67-14-44N, ilguma: 023-04-08E, Aukštis: 165 m

Dabartinis oras

Ataskaita buvo paskelbta 36 minutes, ne 13:20 UTC
Vėjas 2 kt iš Šiaurės/Šiaurės Rytų
Temperatūra -5°C
Drėgmė 100%
Slėgis 993 hPa
sniegas

METAR: ESUP 161320Z AUTO 03002KT //// R11///// -SN NCD M05/M05 Q0993

Laikas: 14:56 (13:56 UTC)


TAF: trūkstamas

Orai ataskaitas ir orų prognozės (METAR, TAF).

turimą stotys yra geltonos ir raudonos taškus žemėlapyje.

Perkelti pele per norėdami pamatyti stoties vardą.

Tada spustelėkite, norėdami matyti oro stebėjimo ir prognozės.

Norėdami pakeisti žemėlapį: spustelėkite ant žalios mygtukų su juodo kryžiaus žemyn,; žalią mygtuką su brūkšneliu, jei norite nutolinti; arba žalių rodyklių gretimoms žemėlapius.


METAR-TAF: